sensor_id;sensor_type;location;lat;lon;timestamp;pressure;altitude;pressure_sealevel;temperature;humidity
12757;BME280;31601;48.042;12.240;2023-03-03T00:02:21;96268.91;;;1.63;70.36
12757;BME280;31601;48.042;12.240;2023-03-03T00:04:49;96266.97;;;1.55;70.49
12757;BME280;31601;48.042;12.240;2023-03-03T00:07:16;96267.75;;;1.56;70.57
12757;BME280;31601;48.042;12.240;2023-03-03T00:09:47;96266.69;;;1.58;70.56
12757;BME280;31601;48.042;12.240;2023-03-03T00:12:20;96259.19;;;1.55;70.64
12757;BME280;31601;48.042;12.240;2023-03-03T00:14:48;96269.38;;;1.47;70.51
12757;BME280;31601;48.042;12.240;2023-03-03T00:17:20;96253.84;;;1.47;70.86
12757;BME280;31601;48.042;12.240;2023-03-03T00:19:49;96259.84;;;1.48;70.65
12757;BME280;31601;48.042;12.240;2023-03-03T00:22:25;96261.09;;;1.53;70.69
12757;BME280;31601;48.042;12.240;2023-03-03T00:24:52;96256.88;;;1.52;70.58
12757;BME280;31601;48.042;12.240;2023-03-03T00:27:26;96261.22;;;1.52;70.36
12757;BME280;31601;48.042;12.240;2023-03-03T00:29:54;96260.38;;;1.51;70.81
12757;BME280;31601;48.042;12.240;2023-03-03T00:32:23;96256.31;;;1.49;70.83
12757;BME280;31601;48.042;12.240;2023-03-03T00:34:52;96260.63;;;1.48;70.97
12757;BME280;31601;48.042;12.240;2023-03-03T00:37:29;96259.97;;;1.46;71.07
12757;BME280;31601;48.042;12.240;2023-03-03T00:40:10;96260.09;;;1.45;70.97
12757;BME280;31601;48.042;12.240;2023-03-03T00:42:38;96264.69;;;1.41;71.31
12757;BME280;31601;48.042;12.240;2023-03-03T00:45:20;96256.94;;;1.41;71.14
12757;BME280;31601;48.042;12.240;2023-03-03T00:47:48;96254.09;;;1.44;70.97
12757;BME280;31601;48.042;12.240;2023-03-03T00:50:31;96257.06;;;1.39;71.49
12757;BME280;31601;48.042;12.240;2023-03-03T00:53:06;96257.88;;;1.40;71.84
12757;BME280;31601;48.042;12.240;2023-03-03T00:55:36;96261.34;;;1.50;71.77
12757;BME280;31601;48.042;12.240;2023-03-03T00:58:03;96256.19;;;1.50;71.89
12757;BME280;31601;48.042;12.240;2023-03-03T01:00:29;96259.88;;;1.57;71.52
12757;BME280;31601;48.042;12.240;2023-03-03T01:02:57;96255.41;;;1.59;71.39
12757;BME280;31601;48.042;12.240;2023-03-03T01:05:26;96265.31;;;1.54;71.46
12757;BME280;31601;48.042;12.240;2023-03-03T01:07:53;96268.72;;;1.55;71.36
12757;BME280;31601;48.042;12.240;2023-03-03T01:10:19;96266.81;;;1.57;71.32
12757;BME280;31601;48.042;12.240;2023-03-03T01:12:46;96264.63;;;1.52;71.31
12757;BME280;31601;48.042;12.240;2023-03-03T01:15:13;96269.22;;;1.28;71.36
12757;BME280;31601;48.042;12.240;2023-03-03T01:17:40;96268.56;;;1.14;71.39
12757;BME280;31601;48.042;12.240;2023-03-03T01:20:09;96269.16;;;1.18;70.96
12757;BME280;31601;48.042;12.240;2023-03-03T01:22:37;96261.97;;;1.21;70.95
12757;BME280;31601;48.042;12.240;2023-03-03T01:25:04;96260.19;;;1.22;70.86
12757;BME280;31601;48.042;12.240;2023-03-03T01:27:31;96261.28;;;1.19;70.67
12757;BME280;31601;48.042;12.240;2023-03-03T01:29:57;96262.59;;;1.14;70.78
12757;BME280;31601;48.042;12.240;2023-03-03T01:32:24;96259.47;;;0.99;70.93
12757;BME280;31601;48.042;12.240;2023-03-03T01:34:50;96257.38;;;0.93;70.88
12757;BME280;31601;48.042;12.240;2023-03-03T01:37:17;96264.97;;;0.73;71.17
12757;BME280;31601;48.042;12.240;2023-03-03T01:39:48;96264.00;;;0.85;70.80
12757;BME280;31601;48.042;12.240;2023-03-03T01:42:15;96267.84;;;0.91;70.91
12757;BME280;31601;48.042;12.240;2023-03-03T01:44:41;96252.34;;;0.91;70.64
12757;BME280;31601;48.042;12.240;2023-03-03T01:47:10;96255.75;;;0.92;70.79
12757;BME280;31601;48.042;12.240;2023-03-03T01:49:40;96256.44;;;0.94;70.66
12757;BME280;31601;48.042;12.240;2023-03-03T01:52:12;96261.78;;;0.69;70.80
12757;BME280;31601;48.042;12.240;2023-03-03T01:54:41;96255.78;;;0.80;70.50
12757;BME280;31601;48.042;12.240;2023-03-03T01:57:13;96249.56;;;0.83;70.81
12757;BME280;31601;48.042;12.240;2023-03-03T01:59:43;96249.47;;;0.73;70.64
12757;BME280;31601;48.042;12.240;2023-03-03T02:02:11;96251.56;;;0.79;70.50
12757;BME280;31601;48.042;12.240;2023-03-03T02:04:38;96246.84;;;0.84;70.41
12757;BME280;31601;48.042;12.240;2023-03-03T02:07:07;96251.94;;;0.75;70.43
12757;BME280;31601;48.042;12.240;2023-03-03T02:09:42;96247.50;;;0.54;71.17
12757;BME280;31601;48.042;12.240;2023-03-03T02:12:14;96246.06;;;0.73;70.46
12757;BME280;31601;48.042;12.240;2023-03-03T02:14:42;96246.28;;;0.81;70.44
12757;BME280;31601;48.042;12.240;2023-03-03T02:17:09;96252.78;;;0.64;71.25
12757;BME280;31601;48.042;12.240;2023-03-03T02:19:42;96252.44;;;0.68;70.98
12757;BME280;31601;48.042;12.240;2023-03-03T02:22:14;96247.91;;;0.82;70.55
12757;BME280;31601;48.042;12.240;2023-03-03T02:24:46;96250.38;;;0.83;70.59
12757;BME280;31601;48.042;12.240;2023-03-03T02:27:17;96252.69;;;0.86;70.41
12757;BME280;31601;48.042;12.240;2023-03-03T02:29:44;96254.16;;;0.79;70.42
12757;BME280;31601;48.042;12.240;2023-03-03T02:32:10;96251.31;;;0.82;70.36
12757;BME280;31601;48.042;12.240;2023-03-03T02:34:45;96251.09;;;0.85;70.26
12757;BME280;31601;48.042;12.240;2023-03-03T02:37:12;96252.00;;;0.84;70.12
12757;BME280;31601;48.042;12.240;2023-03-03T02:39:38;96255.66;;;0.82;70.07
12757;BME280;31601;48.042;12.240;2023-03-03T02:42:07;96258.34;;;0.80;70.22
12757;BME280;31601;48.042;12.240;2023-03-03T02:44:38;96252.25;;;0.81;70.00
12757;BME280;31601;48.042;12.240;2023-03-03T02:47:04;96254.41;;;0.76;70.05
12757;BME280;31601;48.042;12.240;2023-03-03T02:49:32;96259.56;;;0.76;69.78
12757;BME280;31601;48.042;12.240;2023-03-03T02:52:00;96253.31;;;0.79;69.73
12757;BME280;31601;48.042;12.240;2023-03-03T02:54:28;96252.75;;;0.75;69.67
12757;BME280;31601;48.042;12.240;2023-03-03T02:56:55;96253.22;;;0.69;69.51
12757;BME280;31601;48.042;12.240;2023-03-03T02:59:22;96251.81;;;0.65;69.72
12757;BME280;31601;48.042;12.240;2023-03-03T03:01:50;96252.31;;;0.59;69.49
12757;BME280;31601;48.042;12.240;2023-03-03T03:04:19;96249.97;;;0.56;69.44
12757;BME280;31601;48.042;12.240;2023-03-03T03:06:46;96246.59;;;0.55;69.54
12757;BME280;31601;48.042;12.240;2023-03-03T03:09:14;96237.91;;;0.45;69.56
12757;BME280;31601;48.042;12.240;2023-03-03T03:11:41;96240.13;;;0.49;69.47
12757;BME280;31601;48.042;12.240;2023-03-03T03:14:09;96245.16;;;0.51;69.72
12757;BME280;31601;48.042;12.240;2023-03-03T03:16:36;96249.78;;;0.47;69.83
12757;BME280;31601;48.042;12.240;2023-03-03T03:19:04;96249.78;;;0.47;69.39
12757;BME280;31601;48.042;12.240;2023-03-03T03:21:32;96253.75;;;0.40;69.17
12757;BME280;31601;48.042;12.240;2023-03-03T03:23:59;96250.84;;;0.33;69.83
12757;BME280;31601;48.042;12.240;2023-03-03T03:26:25;96246.03;;;0.29;70.07
12757;BME280;31601;48.042;12.240;2023-03-03T03:28:52;96253.19;;;0.37;69.57
12757;BME280;31601;48.042;12.240;2023-03-03T03:31:19;96258.91;;;0.40;69.73
12757;BME280;31601;48.042;12.240;2023-03-03T03:33:47;96251.91;;;0.31;69.60
12757;BME280;31601;48.042;12.240;2023-03-03T03:36:15;96257.53;;;0.36;69.77
12757;BME280;31601;48.042;12.240;2023-03-03T03:38:41;96256.56;;;0.37;69.47
12757;BME280;31601;48.042;12.240;2023-03-03T03:41:10;96248.59;;;0.40;69.50
12757;BME280;31601;48.042;12.240;2023-03-03T03:43:37;96255.28;;;0.43;69.40
12757;BME280;31601;48.042;12.240;2023-03-03T03:46:04;96257.06;;;0.42;69.41
12757;BME280;31601;48.042;12.240;2023-03-03T03:48:31;96265.16;;;0.38;69.67
12757;BME280;31601;48.042;12.240;2023-03-03T03:50:57;96250.25;;;0.41;69.45
12757;BME280;31601;48.042;12.240;2023-03-03T03:53:25;96254.97;;;0.36;69.54
12757;BME280;31601;48.042;12.240;2023-03-03T03:55:51;96257.19;;;0.41;69.44
12757;BME280;31601;48.042;12.240;2023-03-03T03:58:18;96255.91;;;0.24;69.55
12757;BME280;31601;48.042;12.240;2023-03-03T04:00:45;96260.47;;;0.20;69.95
12757;BME280;31601;48.042;12.240;2023-03-03T04:03:12;96258.72;;;0.21;69.99
12757;BME280;31601;48.042;12.240;2023-03-03T04:05:39;96267.88;;;0.13;70.53
12757;BME280;31601;48.042;12.240;2023-03-03T04:08:05;96265.19;;;0.15;70.65
12757;BME280;31601;48.042;12.240;2023-03-03T04:10:33;96265.97;;;0.38;70.06
12757;BME280;31601;48.042;12.240;2023-03-03T04:13:00;96254.94;;;0.47;70.11
12757;BME280;31601;48.042;12.240;2023-03-03T04:15:26;96257.84;;;0.65;69.86
12757;BME280;31601;48.042;12.240;2023-03-03T04:17:52;96261.78;;;0.81;69.60
12757;BME280;31601;48.042;12.240;2023-03-03T04:20:19;96255.75;;;0.92;69.76
12757;BME280;31601;48.042;12.240;2023-03-03T04:22:45;96255.56;;;1.04;69.30
12757;BME280;31601;48.042;12.240;2023-03-03T04:25:13;96257.16;;;1.17;69.06
12757;BME280;31601;48.042;12.240;2023-03-03T04:27:42;96254.91;;;1.23;69.25
12757;BME280;31601;48.042;12.240;2023-03-03T04:30:11;96254.03;;;1.34;68.85
12757;BME280;31601;48.042;12.240;2023-03-03T04:32:37;96263.59;;;1.43;68.66
12757;BME280;31601;48.042;12.240;2023-03-03T04:35:04;96257.38;;;1.46;68.58
12757;BME280;31601;48.042;12.240;2023-03-03T04:37:31;96265.31;;;1.54;68.75
12757;BME280;31601;48.042;12.240;2023-03-03T04:39:57;96269.63;;;1.44;68.95
12757;BME280;31601;48.042;12.240;2023-03-03T04:42:24;96262.59;;;1.56;68.63
12757;BME280;31601;48.042;12.240;2023-03-03T04:44:53;96265.94;;;1.68;68.63
12757;BME280;31601;48.042;12.240;2023-03-03T04:47:19;96262.47;;;1.78;68.39
12757;BME280;31601;48.042;12.240;2023-03-03T04:49:46;96260.16;;;1.85;68.48
12757;BME280;31601;48.042;12.240;2023-03-03T04:52:12;96251.06;;;1.91;68.36
12757;BME280;31601;48.042;12.240;2023-03-03T04:54:39;96254.47;;;1.91;68.31
12757;BME280;31601;48.042;12.240;2023-03-03T04:57:05;96253.78;;;1.89;68.64
12757;BME280;31601;48.042;12.240;2023-03-03T04:59:33;96246.97;;;1.88;68.74
12757;BME280;31601;48.042;12.240;2023-03-03T05:02:01;96243.59;;;1.97;68.56
12757;BME280;31601;48.042;12.240;2023-03-03T05:04:28;96249.66;;;2.08;68.72
12757;BME280;31601;48.042;12.240;2023-03-03T05:06:55;96250.94;;;1.92;68.87
12757;BME280;31601;48.042;12.240;2023-03-03T05:09:21;96254.66;;;2.00;68.67
12757;BME280;31601;48.042;12.240;2023-03-03T05:11:48;96255.22;;;2.03;68.80
12757;BME280;31601;48.042;12.240;2023-03-03T05:14:14;96261.53;;;2.10;68.48
12757;BME280;31601;48.042;12.240;2023-03-03T05:16:41;96262.06;;;2.14;68.66
12757;BME280;31601;48.042;12.240;2023-03-03T05:19:08;96259.88;;;2.09;68.75
12757;BME280;31601;48.042;12.240;2023-03-03T05:21:35;96264.28;;;2.19;68.71
12757;BME280;31601;48.042;12.240;2023-03-03T05:24:06;96260.88;;;2.18;68.75
12757;BME280;31601;48.042;12.240;2023-03-03T05:26:33;96262.94;;;2.24;68.49
12757;BME280;31601;48.042;12.240;2023-03-03T05:28:59;96258.84;;;2.31;68.55
12757;BME280;31601;48.042;12.240;2023-03-03T05:31:26;96258.84;;;2.31;68.71
12757;BME280;31601;48.042;12.240;2023-03-03T05:33:52;96260.59;;;2.21;69.12
12757;BME280;31601;48.042;12.240;2023-03-03T05:36:20;96264.75;;;2.33;69.07
12757;BME280;31601;48.042;12.240;2023-03-03T05:38:47;96265.16;;;2.39;68.85
12757;BME280;31601;48.042;12.240;2023-03-03T05:41:13;96267.88;;;2.47;68.94
12757;BME280;31601;48.042;12.240;2023-03-03T05:43:40;96273.84;;;2.28;69.64
12757;BME280;31601;48.042;12.240;2023-03-03T05:46:06;96276.97;;;2.31;69.67
12757;BME280;31601;48.042;12.240;2023-03-03T05:48:33;96274.13;;;2.35;70.00
12757;BME280;31601;48.042;12.240;2023-03-03T05:50:59;96276.06;;;2.42;69.97
12757;BME280;31601;48.042;12.240;2023-03-03T05:53:27;96274.31;;;2.53;69.50
12757;BME280;31601;48.042;12.240;2023-03-03T05:55:54;96279.91;;;2.58;69.50
12757;BME280;31601;48.042;12.240;2023-03-03T05:58:21;96287.00;;;2.46;70.03
12757;BME280;31601;48.042;12.240;2023-03-03T06:00:48;96286.72;;;2.49;69.71
12757;BME280;31601;48.042;12.240;2023-03-03T06:03:14;96285.94;;;2.58;69.60
12757;BME280;31601;48.042;12.240;2023-03-03T06:05:41;96293.44;;;2.71;69.31
12757;BME280;31601;48.042;12.240;2023-03-03T06:08:07;96294.78;;;2.65;69.23
12757;BME280;31601;48.042;12.240;2023-03-03T06:10:35;96296.84;;;2.72;69.21
12757;BME280;31601;48.042;12.240;2023-03-03T06:13:01;96291.28;;;2.76;68.95
12757;BME280;31601;48.042;12.240;2023-03-03T06:15:28;96286.41;;;2.83;69.03
12757;BME280;31601;48.042;12.240;2023-03-03T06:17:54;96290.06;;;2.90;69.11
12757;BME280;31601;48.042;12.240;2023-03-03T06:20:21;96295.81;;;2.94;69.03
12757;BME280;31601;48.042;12.240;2023-03-03T06:22:47;96296.22;;;2.89;69.11
12757;BME280;31601;48.042;12.240;2023-03-03T06:25:14;96293.38;;;3.02;68.79
12757;BME280;31601;48.042;12.240;2023-03-03T06:27:41;96300.19;;;3.03;68.89
12757;BME280;31601;48.042;12.240;2023-03-03T06:30:09;96309.63;;;3.14;69.05
12757;BME280;31601;48.042;12.240;2023-03-03T06:32:37;96311.50;;;3.02;69.08
12757;BME280;31601;48.042;12.240;2023-03-03T06:35:04;96308.25;;;3.10;69.20
12757;BME280;31601;48.042;12.240;2023-03-03T06:37:30;96310.84;;;3.00;69.23
12757;BME280;31601;48.042;12.240;2023-03-03T06:39:57;96320.34;;;2.80;69.21
12757;BME280;31601;48.042;12.240;2023-03-03T06:42:23;96323.28;;;2.65;69.70
12757;BME280;31601;48.042;12.240;2023-03-03T06:44:51;96317.63;;;2.91;69.09
12757;BME280;31601;48.042;12.240;2023-03-03T06:47:17;96322.00;;;3.00;69.05
12757;BME280;31601;48.042;12.240;2023-03-03T06:49:44;96312.47;;;3.11;68.83
12757;BME280;31601;48.042;12.240;2023-03-03T06:52:12;96325.84;;;3.16;68.80
12757;BME280;31601;48.042;12.240;2023-03-03T06:54:39;96321.06;;;3.21;69.08
12757;BME280;31601;48.042;12.240;2023-03-03T06:57:15;96336.63;;;3.11;69.31
12757;BME280;31601;48.042;12.240;2023-03-03T06:59:42;96331.16;;;3.24;69.06
12757;BME280;31601;48.042;12.240;2023-03-03T07:02:15;96325.56;;;3.19;69.16
12757;BME280;31601;48.042;12.240;2023-03-03T07:04:43;96333.50;;;3.37;68.53
12757;BME280;31601;48.042;12.240;2023-03-03T07:07:16;96330.75;;;3.58;68.44
12757;BME280;31601;48.042;12.240;2023-03-03T07:09:45;96335.69;;;3.51;68.02
12757;BME280;31601;48.042;12.240;2023-03-03T07:12:14;96335.25;;;3.66;68.22
12757;BME280;31601;48.042;12.240;2023-03-03T07:14:45;96347.53;;;3.73;67.94
12757;BME280;31601;48.042;12.240;2023-03-03T07:17:16;96344.13;;;3.83;67.70
12757;BME280;31601;48.042;12.240;2023-03-03T07:19:43;96342.22;;;3.85;67.67
12757;BME280;31601;48.042;12.240;2023-03-03T07:22:15;96350.13;;;3.93;67.52
12757;BME280;31601;48.042;12.240;2023-03-03T07:24:44;96345.75;;;4.03;67.50
12757;BME280;31601;48.042;12.240;2023-03-03T07:27:13;96347.63;;;4.01;67.41
12757;BME280;31601;48.042;12.240;2023-03-03T07:29:42;96349.56;;;3.99;67.46
12757;BME280;31601;48.042;12.240;2023-03-03T07:32:23;96353.34;;;4.15;67.62
12757;BME280;31601;48.042;12.240;2023-03-03T07:34:51;96354.72;;;4.19;67.32
12757;BME280;31601;48.042;12.240;2023-03-03T07:37:27;96358.97;;;4.10;67.25
12757;BME280;31601;48.042;12.240;2023-03-03T07:39:54;96363.84;;;4.23;67.29
12757;BME280;31601;48.042;12.240;2023-03-03T07:42:23;96367.56;;;4.10;67.36
12757;BME280;31601;48.042;12.240;2023-03-03T07:44:54;96375.22;;;4.12;67.65
12757;BME280;31601;48.042;12.240;2023-03-03T07:47:24;96374.66;;;4.28;67.11
12757;BME280;31601;48.042;12.240;2023-03-03T07:49:51;96372.16;;;4.36;67.33
12757;BME280;31601;48.042;12.240;2023-03-03T07:52:30;96376.84;;;4.33;67.08
12757;BME280;31601;48.042;12.240;2023-03-03T07:55:00;96377.75;;;4.41;67.32
12757;BME280;31601;48.042;12.240;2023-03-03T07:57:34;96382.28;;;4.39;67.10
12757;BME280;31601;48.042;12.240;2023-03-03T08:02:55;96384.06;;;4.29;67.35
12757;BME280;31601;48.042;12.240;2023-03-03T08:05:29;96390.88;;;4.40;67.15
12757;BME280;31601;48.042;12.240;2023-03-03T08:08:02;96391.72;;;4.40;67.08
12757;BME280;31601;48.042;12.240;2023-03-03T08:10:40;96390.44;;;4.44;67.35
12757;BME280;31601;48.042;12.240;2023-03-03T08:13:15;96382.84;;;4.33;67.55
12757;BME280;31601;48.042;12.240;2023-03-03T08:15:43;96386.06;;;4.55;66.92
12757;BME280;31601;48.042;12.240;2023-03-03T08:18:20;96385.19;;;4.64;66.75
12757;BME280;31601;48.042;12.240;2023-03-03T08:20:48;96377.03;;;4.87;66.34
12757;BME280;31601;48.042;12.240;2023-03-03T08:23:17;96381.38;;;4.96;66.59
12757;BME280;31601;48.042;12.240;2023-03-03T08:25:44;96387.47;;;5.05;66.60
12757;BME280;31601;48.042;12.240;2023-03-03T08:28:11;96381.25;;;5.15;66.24
12757;BME280;31601;48.042;12.240;2023-03-03T08:30:38;96384.91;;;5.23;66.06
12757;BME280;31601;48.042;12.240;2023-03-03T08:33:05;96389.25;;;5.04;66.09
12757;BME280;31601;48.042;12.240;2023-03-03T08:35:32;96386.00;;;5.20;65.29
12757;BME280;31601;48.042;12.240;2023-03-03T08:37:59;96382.59;;;5.37;65.67
12757;BME280;31601;48.042;12.240;2023-03-03T08:40:25;96376.16;;;5.60;65.09
12757;BME280;31601;48.042;12.240;2023-03-03T08:42:52;96379.41;;;5.62;65.13
12757;BME280;31601;48.042;12.240;2023-03-03T08:45:19;96385.44;;;5.80;64.89
12757;BME280;31601;48.042;12.240;2023-03-03T08:47:46;96379.41;;;5.98;64.11
12757;BME280;31601;48.042;12.240;2023-03-03T08:50:13;96375.25;;;6.05;63.98
12757;BME280;31601;48.042;12.240;2023-03-03T08:52:41;96377.41;;;6.09;64.05
12757;BME280;31601;48.042;12.240;2023-03-03T08:55:07;96379.25;;;6.17;63.02
12757;BME280;31601;48.042;12.240;2023-03-03T08:57:34;96378.03;;;6.30;63.13
12757;BME280;31601;48.042;12.240;2023-03-03T09:00:00;96383.97;;;6.40;62.47
12757;BME280;31601;48.042;12.240;2023-03-03T09:02:27;96377.50;;;6.52;62.65
12757;BME280;31601;48.042;12.240;2023-03-03T09:04:53;96383.41;;;6.62;62.12
12757;BME280;31601;48.042;12.240;2023-03-03T09:07:20;96391.78;;;6.74;61.77
12757;BME280;31601;48.042;12.240;2023-03-03T09:09:48;96389.38;;;6.81;62.03
12757;BME280;31601;48.042;12.240;2023-03-03T09:12:16;96388.78;;;6.95;61.84
12757;BME280;31601;48.042;12.240;2023-03-03T09:14:43;96393.06;;;7.05;60.93
12757;BME280;31601;48.042;12.240;2023-03-03T09:17:23;96390.72;;;6.93;60.79
12757;BME280;31601;48.042;12.240;2023-03-03T09:19:51;96392.13;;;7.14;60.11
12757;BME280;31601;48.042;12.240;2023-03-03T09:22:23;96389.53;;;7.22;59.96
12757;BME280;31601;48.042;12.240;2023-03-03T09:24:54;96397.72;;;7.35;59.76
12757;BME280;31601;48.042;12.240;2023-03-03T09:27:26;96394.97;;;7.45;59.17
12757;BME280;31601;48.042;12.240;2023-03-03T09:29:54;96402.34;;;7.58;59.08
12757;BME280;31601;48.042;12.240;2023-03-03T09:32:29;96402.16;;;7.60;58.54
12757;BME280;31601;48.042;12.240;2023-03-03T09:34:56;96414.75;;;7.64;58.93
12757;BME280;31601;48.042;12.240;2023-03-03T09:37:26;96413.16;;;7.88;58.42
12757;BME280;31601;48.042;12.240;2023-03-03T09:39:55;96420.34;;;8.02;57.79
12757;BME280;31601;48.042;12.240;2023-03-03T09:42:33;96416.75;;;8.12;57.57
12757;BME280;31601;48.042;12.240;2023-03-03T09:45:24;96412.50;;;8.19;56.54
12757;BME280;31601;48.042;12.240;2023-03-03T09:48:00;96417.22;;;8.32;56.97
12757;BME280;31601;48.042;12.240;2023-03-03T09:50:35;96423.28;;;8.49;56.38
12757;BME280;31601;48.042;12.240;2023-03-03T09:53:18;96422.28;;;8.58;55.75
12757;BME280;31601;48.042;12.240;2023-03-03T09:55:53;96423.44;;;8.55;55.15
12757;BME280;31601;48.042;12.240;2023-03-03T09:58:33;96428.34;;;8.67;54.55
12757;BME280;31601;48.042;12.240;2023-03-03T10:01:18;96428.09;;;8.85;54.33
12757;BME280;31601;48.042;12.240;2023-03-03T10:06:44;96428.84;;;8.62;53.72
12757;BME280;31601;48.042;12.240;2023-03-03T10:09:35;96423.59;;;8.21;54.56
12757;BME280;31601;48.042;12.240;2023-03-03T10:12:09;96429.44;;;7.74;55.49
12757;BME280;31601;48.042;12.240;2023-03-03T10:14:50;96434.72;;;8.15;56.39
12757;BME280;31601;48.042;12.240;2023-03-03T10:17:25;96431.44;;;8.37;55.27
12757;BME280;31601;48.042;12.240;2023-03-03T10:20:05;96433.09;;;8.47;55.68
12757;BME280;31601;48.042;12.240;2023-03-03T10:22:39;96431.44;;;7.96;56.38
12757;BME280;31601;48.042;12.240;2023-03-03T10:25:19;96436.53;;;8.47;55.50
12757;BME280;31601;48.042;12.240;2023-03-03T10:28:06;96441.34;;;8.91;54.10
12757;BME280;31601;48.042;12.240;2023-03-03T10:30:45;96439.28;;;8.70;53.13
12757;BME280;31601;48.042;12.240;2023-03-03T10:33:22;96436.22;;;9.14;53.28
12757;BME280;31601;48.042;12.240;2023-03-03T10:36:07;96441.44;;;9.06;53.45
12757;BME280;31601;48.042;12.240;2023-03-03T10:38:48;96446.75;;;8.90;52.92
12757;BME280;31601;48.042;12.240;2023-03-03T10:41:29;96446.06;;;9.04;52.68
12757;BME280;31601;48.042;12.240;2023-03-03T10:47:09;96439.47;;;9.48;52.40
12757;BME280;31601;48.042;12.240;2023-03-03T10:49:49;96448.88;;;9.34;52.38
12757;BME280;31601;48.042;12.240;2023-03-03T10:52:28;96446.25;;;9.34;53.42
12757;BME280;31601;48.042;12.240;2023-03-03T10:55:26;96444.44;;;8.95;53.16
12757;BME280;31601;48.042;12.240;2023-03-03T10:58:23;96442.66;;;9.35;53.01
12757;BME280;31601;48.042;12.240;2023-03-03T11:00:58;96435.31;;;9.30;53.45
12757;BME280;31601;48.042;12.240;2023-03-03T11:03:47;96442.41;;;8.49;54.29
12757;BME280;31601;48.042;12.240;2023-03-03T11:06:24;96436.84;;;9.17;54.11
12757;BME280;31601;48.042;12.240;2023-03-03T11:08:55;96433.88;;;9.59;53.40
12757;BME280;31601;48.042;12.240;2023-03-03T11:11:33;96435.56;;;9.75;52.46
12757;BME280;31601;48.042;12.240;2023-03-03T11:14:05;96437.78;;;9.86;52.25
12757;BME280;31601;48.042;12.240;2023-03-03T11:16:49;96431.66;;;10.17;51.48
12757;BME280;31601;48.042;12.240;2023-03-03T11:19:30;96424.84;;;9.62;51.80
12757;BME280;31601;48.042;12.240;2023-03-03T11:22:10;96435.13;;;9.95;52.17
12757;BME280;31601;48.042;12.240;2023-03-03T11:24:49;96434.53;;;9.22;53.22
12757;BME280;31601;48.042;12.240;2023-03-03T11:27:26;96430.59;;;9.89;52.13
12757;BME280;31601;48.042;12.240;2023-03-03T11:30:08;96427.34;;;9.55;52.51
12757;BME280;31601;48.042;12.240;2023-03-03T11:32:49;96431.97;;;9.99;52.62
12757;BME280;31601;48.042;12.240;2023-03-03T11:35:21;96427.63;;;10.30;51.76
12757;BME280;31601;48.042;12.240;2023-03-03T11:37:56;96423.94;;;10.24;50.60
12757;BME280;31601;48.042;12.240;2023-03-03T11:40:32;96430.31;;;9.12;53.77
12757;BME280;31601;48.042;12.240;2023-03-03T11:43:09;96420.94;;;9.58;53.39
12757;BME280;31601;48.042;12.240;2023-03-03T11:45:41;96418.56;;;9.71;53.37
12757;BME280;31601;48.042;12.240;2023-03-03T11:48:16;96416.59;;;10.19;52.75
12757;BME280;31601;48.042;12.240;2023-03-03T11:50:50;96402.22;;;10.53;52.17
12757;BME280;31601;48.042;12.240;2023-03-03T11:53:31;96398.84;;;10.60;51.28
12757;BME280;31601;48.042;12.240;2023-03-03T11:56:07;96389.91;;;10.69;50.59
12757;BME280;31601;48.042;12.240;2023-03-03T11:58:43;96384.56;;;10.92;50.65
12757;BME280;31601;48.042;12.240;2023-03-03T12:01:17;96379.00;;;11.17;50.21
12757;BME280;31601;48.042;12.240;2023-03-03T12:03:52;96381.16;;;10.62;50.01
12757;BME280;31601;48.042;12.240;2023-03-03T12:06:27;96391.63;;;10.77;50.46
12757;BME280;31601;48.042;12.240;2023-03-03T12:09:22;96389.53;;;10.42;50.80
12757;BME280;31601;48.042;12.240;2023-03-03T12:11:54;96382.94;;;10.76;50.12
12757;BME280;31601;48.042;12.240;2023-03-03T12:14:40;96383.22;;;10.81;50.74
12757;BME280;31601;48.042;12.240;2023-03-03T12:17:21;96389.38;;;10.88;50.62
12757;BME280;31601;48.042;12.240;2023-03-03T12:19:57;96384.81;;;9.99;52.01
12757;BME280;31601;48.042;12.240;2023-03-03T12:22:33;96378.53;;;10.24;51.34
12757;BME280;31601;48.042;12.240;2023-03-03T12:27:53;96384.38;;;10.11;52.62
12757;BME280;31601;48.042;12.240;2023-03-03T12:30:49;96385.88;;;10.05;52.67
12757;BME280;31601;48.042;12.240;2023-03-03T12:33:27;96378.72;;;9.99;53.46
12757;BME280;31601;48.042;12.240;2023-03-03T12:36:09;96371.53;;;10.01;53.41
12757;BME280;31601;48.042;12.240;2023-03-03T12:38:45;96383.63;;;9.79;52.05
12757;BME280;31601;48.042;12.240;2023-03-03T12:41:21;96379.78;;;9.90;52.83
12757;BME280;31601;48.042;12.240;2023-03-03T12:43:55;96381.66;;;9.58;52.84
12757;BME280;31601;48.042;12.240;2023-03-03T12:46:32;96382.72;;;9.09;53.71
12757;BME280;31601;48.042;12.240;2023-03-03T12:49:01;96382.72;;;9.40;54.00
12757;BME280;31601;48.042;12.240;2023-03-03T12:51:37;96368.94;;;9.46;54.00
12757;BME280;31601;48.042;12.240;2023-03-03T12:54:16;96367.91;;;9.56;53.57
12757;BME280;31601;48.042;12.240;2023-03-03T12:56:47;96363.69;;;9.55;53.80
12757;BME280;31601;48.042;12.240;2023-03-03T12:59:20;96363.69;;;9.55;54.05
12757;BME280;31601;48.042;12.240;2023-03-03T13:02:06;96367.56;;;9.59;53.83
12757;BME280;31601;48.042;12.240;2023-03-03T13:04:43;96370.34;;;9.57;53.81
12757;BME280;31601;48.042;12.240;2023-03-03T13:07:16;96371.53;;;9.55;53.52
12757;BME280;31601;48.042;12.240;2023-03-03T13:09:57;96371.34;;;9.33;54.15
12757;BME280;31601;48.042;12.240;2023-03-03T13:12:33;96371.63;;;9.38;53.71
12757;BME280;31601;48.042;12.240;2023-03-03T13:15:06;96368.03;;;9.39;53.54
12757;BME280;31601;48.042;12.240;2023-03-03T13:17:39;96364.03;;;9.52;53.68
12757;BME280;31601;48.042;12.240;2023-03-03T13:20:17;96371.63;;;9.38;54.77
12757;BME280;31601;48.042;12.240;2023-03-03T13:22:51;96369.53;;;9.57;53.61
12757;BME280;31601;48.042;12.240;2023-03-03T13:25:33;96364.81;;;9.52;54.27
12757;BME280;31601;48.042;12.240;2023-03-03T13:28:06;96356.72;;;9.62;53.88
12757;BME280;31601;48.042;12.240;2023-03-03T13:30:39;96356.72;;;9.62;53.32
12757;BME280;31601;48.042;12.240;2023-03-03T13:33:15;96364.31;;;9.80;53.29